createdAt,value
2023-01-22T00:00:24.937Z,-28.14
2023-01-22T00:02:52.792Z,-28.14
2023-01-22T00:05:20.824Z,-28.21
2023-01-22T00:07:49.212Z,-28.29
2023-01-22T00:10:17.537Z,-28.30
2023-01-22T00:12:45.549Z,-28.33
2023-01-22T00:15:13.427Z,-28.38
2023-01-22T00:17:41.203Z,-28.42
2023-01-22T00:20:09.948Z,-28.40
2023-01-22T00:22:37.697Z,-28.41
2023-01-22T00:25:06.109Z,-28.45
2023-01-22T00:27:34.012Z,-28.58
2023-01-22T00:30:01.854Z,-28.63
2023-01-22T00:32:29.790Z,-28.57
2023-01-22T00:34:57.675Z,-28.54
2023-01-22T00:37:26.209Z,-28.55
2023-01-22T00:39:54.046Z,-28.55
2023-01-22T00:42:22.389Z,-28.55
2023-01-22T00:44:50.256Z,-28.64
2023-01-22T00:47:18.128Z,-28.67
2023-01-22T00:49:46.018Z,-28.70
2023-01-22T00:52:13.923Z,-28.71
2023-01-22T00:54:42.139Z,-28.68
2023-01-22T00:57:09.881Z,-28.64
2023-01-22T00:59:37.908Z,-28.66
2023-01-22T01:02:07.082Z,-28.61
2023-01-22T01:04:35.047Z,-28.60
2023-01-22T01:07:02.944Z,-28.53
2023-01-22T01:09:30.740Z,-28.47
2023-01-22T01:11:59.345Z,-28.38
2023-01-22T01:14:27.974Z,-28.36
2023-01-22T01:16:59.023Z,-28.34
2023-01-22T01:19:27.045Z,-28.35
2023-01-22T01:21:54.933Z,-28.39
2023-01-22T01:24:24.989Z,-28.49
2023-01-22T01:26:52.760Z,-28.55
2023-01-22T01:29:20.587Z,-28.65
2023-01-22T01:31:52.122Z,-28.68
2023-01-22T01:34:20.122Z,-28.78
2023-01-22T01:36:49.546Z,-28.80
2023-01-22T01:39:17.947Z,-28.82
2023-01-22T01:41:47.795Z,-28.89
2023-01-22T01:44:23.376Z,-28.91
2023-01-22T01:47:05.589Z,-28.95
2023-01-22T01:49:49.650Z,-28.98
2023-01-22T01:52:18.194Z,-29.06
2023-01-22T01:54:48.305Z,-29.09
2023-01-22T01:57:19.346Z,-29.07
2023-01-22T01:59:47.271Z,-29.07
2023-01-22T02:02:15.137Z,-29.01
2023-01-22T02:04:44.051Z,-28.98
2023-01-22T02:07:11.861Z,-28.91
2023-01-22T02:09:39.912Z,-28.90
2023-01-22T02:12:07.920Z,-28.90
2023-01-22T02:14:38.269Z,-28.92
2023-01-22T02:17:14.099Z,-29.00
2023-01-22T02:19:42.479Z,-29.04
2023-01-22T02:22:14.750Z,-29.01
2023-01-22T02:24:42.559Z,-28.95
2023-01-22T02:27:11.240Z,-28.87
2023-01-22T02:29:39.161Z,-28.78
2023-01-22T02:32:09.614Z,-28.74
2023-01-22T02:34:38.713Z,-28.75
2023-01-22T02:37:06.791Z,-28.82
2023-01-22T02:39:34.747Z,-28.82
2023-01-22T02:42:05.478Z,-28.81
2023-01-22T02:44:33.529Z,-28.78
2023-01-22T02:47:01.561Z,-28.72
2023-01-22T02:49:29.387Z,-28.57
2023-01-22T02:51:57.236Z,-28.40
2023-01-22T02:54:25.864Z,-28.25
2023-01-22T02:56:53.770Z,-28.08
2023-01-22T02:59:21.632Z,-27.97
2023-01-22T03:01:49.493Z,-27.96
2023-01-22T03:04:17.432Z,-27.92
2023-01-22T03:06:46.380Z,-27.88
2023-01-22T03:09:16.495Z,-27.75
2023-01-22T03:11:45.743Z,-27.65
2023-01-22T03:14:36.530Z,-27.58
2023-01-22T03:17:23.028Z,-27.43
2023-01-22T03:20:11.178Z,-27.26
2023-01-22T03:22:39.000Z,-27.05
2023-01-22T03:25:07.198Z,-26.86
2023-01-22T03:27:35.115Z,-26.74
2023-01-22T03:30:02.953Z,-26.55
2023-01-22T03:32:34.703Z,-26.24
2023-01-22T03:35:02.824Z,-26.06
2023-01-22T03:37:43.897Z,-25.92
2023-01-22T03:40:12.238Z,-25.80
2023-01-22T03:42:40.736Z,-25.71
2023-01-22T03:45:10.428Z,-25.55
2023-01-22T03:47:39.231Z,-25.38
2023-01-22T03:50:22.049Z,-25.27
2023-01-22T03:52:49.816Z,-25.26
2023-01-22T03:55:17.610Z,-25.26
2023-01-22T03:57:45.704Z,-25.19
2023-01-22T04:00:15.242Z,-25.19
2023-01-22T04:02:43.927Z,-25.25
2023-01-22T04:05:19.960Z,-25.36
2023-01-22T04:07:50.054Z,-25.56
2023-01-22T04:10:20.412Z,-25.75
2023-01-22T04:12:49.038Z,-25.80
2023-01-22T04:15:20.463Z,-25.90
2023-01-22T04:17:49.924Z,-26.00
2023-01-22T04:20:46.996Z,-26.20
2023-01-22T04:23:30.402Z,-26.33
2023-01-22T04:25:59.048Z,-26.40
2023-01-22T04:28:27.051Z,-26.42
2023-01-22T04:30:56.414Z,-26.35
2023-01-22T04:33:43.233Z,-26.35
2023-01-22T04:36:16.591Z,-26.43
2023-01-22T04:38:44.787Z,-26.33
2023-01-22T04:41:12.406Z,-26.26
2023-01-22T04:43:40.383Z,-26.09
2023-01-22T04:46:08.389Z,-25.98
2023-01-22T04:48:36.262Z,-25.86
2023-01-22T04:51:04.450Z,-25.65
2023-01-22T04:53:33.644Z,-25.47
2023-01-22T04:56:01.701Z,-25.24
2023-01-22T04:58:29.532Z,-24.95
2023-01-22T05:01:00.678Z,-24.67
2023-01-22T05:03:29.379Z,-24.44
2023-01-22T05:05:57.892Z,-24.21
2023-01-22T05:08:27.290Z,-24.03
2023-01-22T05:10:55.302Z,-23.88
2023-01-22T05:13:30.142Z,-23.70
2023-01-22T05:15:58.137Z,-23.61
2023-01-22T05:18:27.120Z,-23.57
2023-01-22T05:20:54.896Z,-23.46
2023-01-22T05:23:28.926Z,-23.32
2023-01-22T05:26:02.654Z,-23.48
2023-01-22T05:28:40.114Z,-23.56
2023-01-22T05:31:12.025Z,-23.69
2023-01-22T05:33:48.622Z,-23.60
2023-01-22T05:36:17.178Z,-23.63
2023-01-22T05:38:46.999Z,-23.58
2023-01-22T05:41:16.387Z,-23.55
2023-01-22T05:43:44.311Z,-23.63
2023-01-22T05:46:18.622Z,-23.78
2023-01-22T05:49:25.003Z,-24.18
2023-01-22T05:51:56.578Z,-24.48
2023-01-22T05:54:24.535Z,-24.81
2023-01-22T05:56:53.111Z,-25.05
2023-01-22T05:59:21.150Z,-25.23
2023-01-22T06:01:55.516Z,-25.35
2023-01-22T06:04:23.441Z,-25.49
2023-01-22T06:06:51.185Z,-25.66
2023-01-22T06:09:20.942Z,-25.83
2023-01-22T06:11:48.796Z,-25.91
2023-01-22T06:14:17.265Z,-26.02
2023-01-22T06:16:45.479Z,-26.05
2023-01-22T06:19:39.350Z,-26.10
2023-01-22T06:22:08.122Z,-26.17
2023-01-22T06:24:49.998Z,-26.16
2023-01-22T06:27:19.448Z,-26.04
2023-01-22T06:30:00.875Z,-25.85
2023-01-22T06:32:29.332Z,-25.68
2023-01-22T06:34:57.587Z,-25.45
2023-01-22T06:37:25.659Z,-25.35
2023-01-22T06:39:54.028Z,-25.28
2023-01-22T06:42:42.119Z,-25.30
2023-01-22T06:45:10.284Z,-25.26
2023-01-22T06:47:44.587Z,-25.08
2023-01-22T06:50:13.626Z,-25.03
2023-01-22T06:52:41.961Z,-25.00
2023-01-22T06:55:10.213Z,-24.98
2023-01-22T06:57:39.711Z,-24.92
2023-01-22T07:00:08.130Z,-24.92
2023-01-22T07:02:35.960Z,-25.00
2023-01-22T07:05:03.850Z,-24.97
2023-01-22T07:07:31.672Z,-24.97
2023-01-22T07:09:59.427Z,-25.02
2023-01-22T07:12:27.407Z,-25.07
2023-01-22T07:14:55.211Z,-25.01
2023-01-22T07:17:23.237Z,-25.06
2023-01-22T07:19:51.327Z,-25.01
2023-01-22T07:22:19.131Z,-25.02
2023-01-22T07:24:46.981Z,-24.98
2023-01-22T07:27:14.867Z,-25.00
2023-01-22T07:29:43.092Z,-25.14
2023-01-22T07:32:10.887Z,-25.28
2023-01-22T07:34:38.973Z,-25.35
2023-01-22T07:37:06.933Z,-25.43
2023-01-22T07:39:34.643Z,-25.53
2023-01-22T07:42:02.542Z,-25.57
2023-01-22T07:44:31.659Z,-25.67
2023-01-22T07:46:59.483Z,-25.69
2023-01-22T07:49:27.393Z,-25.75
2023-01-22T07:51:55.230Z,-25.84
2023-01-22T07:54:23.175Z,-25.86
2023-01-22T07:56:51.096Z,-25.76
2023-01-22T07:59:19.152Z,-25.63
2023-01-22T08:01:47.256Z,-25.45
2023-01-22T08:04:15.085Z,-25.35
2023-01-22T08:06:42.840Z,-25.30
2023-01-22T08:09:10.824Z,-25.28
2023-01-22T08:11:38.791Z,-25.39
2023-01-22T08:14:06.521Z,-25.45
2023-01-22T08:16:34.527Z,-25.47
2023-01-22T08:19:02.512Z,-25.46
2023-01-22T08:21:30.439Z,-25.39
2023-01-22T08:23:58.237Z,-25.49
2023-01-22T08:26:26.088Z,-25.62
2023-01-22T08:28:54.031Z,-25.70
2023-01-22T08:31:27.846Z,-25.77
2023-01-22T08:33:56.416Z,-25.87
2023-01-22T08:36:24.348Z,-25.92
2023-01-22T08:38:52.220Z,-25.97
2023-01-22T08:41:20.206Z,-25.96
2023-01-22T08:43:48.047Z,-26.05
2023-01-22T08:46:16.100Z,-26.02
2023-01-22T08:48:44.633Z,-26.04
2023-01-22T08:51:13.008Z,-25.90
2023-01-22T08:53:41.078Z,-25.93
2023-01-22T08:56:08.931Z,-25.88
2023-01-22T08:58:36.902Z,-25.93
2023-01-22T09:01:04.898Z,-25.95
2023-01-22T09:03:32.830Z,-25.86
2023-01-22T09:06:00.618Z,-25.92
2023-01-22T09:08:28.586Z,-25.92
2023-01-22T09:10:56.373Z,-25.95
2023-01-22T09:13:24.094Z,-26.01
2023-01-22T09:15:52.135Z,-26.00
2023-01-22T09:18:19.838Z,-26.03
2023-01-22T09:20:47.655Z,-25.99
2023-01-22T09:23:15.734Z,-26.04
2023-01-22T09:25:43.627Z,-26.10
2023-01-22T09:28:12.760Z,-26.15
2023-01-22T09:30:42.238Z,-26.14
2023-01-22T09:33:10.451Z,-26.06
2023-01-22T09:35:38.355Z,-26.02
2023-01-22T09:38:06.241Z,-26.00
2023-01-22T09:40:49.374Z,-26.09
2023-01-22T09:43:37.899Z,-26.21
2023-01-22T09:46:13.436Z,-26.28
2023-01-22T09:48:44.276Z,-26.36
2023-01-22T09:51:15.612Z,-26.52
2023-01-22T09:53:43.900Z,-26.61
2023-01-22T09:56:24.133Z,-26.70
2023-01-22T09:58:52.275Z,-26.78
2023-01-22T10:01:20.642Z,-26.85
2023-01-22T10:03:51.269Z,-26.84
2023-01-22T10:06:23.355Z,-26.78
2023-01-22T10:09:16.595Z,-26.74
2023-01-22T10:11:53.032Z,-26.74
2023-01-22T10:14:22.077Z,-26.76
2023-01-22T10:16:49.937Z,-26.84
2023-01-22T10:19:42.768Z,-26.95
2023-01-22T10:22:36.722Z,-27.07
2023-01-22T10:25:04.928Z,-27.21
2023-01-22T10:27:41.873Z,-27.29
2023-01-22T10:30:19.463Z,-27.39
2023-01-22T10:32:58.368Z,-27.47
2023-01-22T10:35:26.504Z,-27.56
2023-01-22T10:37:55.525Z,-27.61
2023-01-22T10:40:33.192Z,-27.68
2023-01-22T10:43:01.859Z,-27.69
2023-01-22T10:45:29.786Z,-27.73
2023-01-22T10:48:17.664Z,-27.78
2023-01-22T10:50:45.922Z,-27.80
2023-01-22T10:53:34.858Z,-27.77
2023-01-22T10:56:05.748Z,-27.68
2023-01-22T10:58:37.077Z,-27.63
2023-01-22T11:01:07.590Z,-27.66
2023-01-22T11:03:37.621Z,-27.63
2023-01-22T11:06:17.099Z,-27.59
2023-01-22T11:09:00.839Z,-27.61
2023-01-22T11:11:33.631Z,-27.72
2023-01-22T11:14:07.872Z,-27.74
2023-01-22T11:16:36.766Z,-27.80
2023-01-22T11:19:13.098Z,-27.85
2023-01-22T11:21:51.995Z,-27.87
2023-01-22T11:24:22.717Z,-27.89
2023-01-22T11:27:04.996Z,-27.85
2023-01-22T11:29:59.251Z,-27.82
2023-01-22T11:32:51.558Z,-27.77
2023-01-22T11:35:45.211Z,-27.72
2023-01-22T11:38:37.590Z,-27.72
2023-01-22T11:41:31.042Z,-27.67
2023-01-22T11:44:29.101Z,-27.69
2023-01-22T11:47:12.037Z,-27.70
2023-01-22T11:49:57.286Z,-27.70
2023-01-22T11:52:44.105Z,-27.70
2023-01-22T11:55:58.088Z,-27.68
2023-01-22T11:58:58.338Z,-27.65
2023-01-22T12:01:53.347Z,-27.61
2023-01-22T12:04:43.051Z,-27.58
2023-01-22T12:07:29.491Z,-27.52
2023-01-22T12:10:19.346Z,-27.48
2023-01-22T12:12:56.151Z,-27.43
2023-01-22T12:15:27.444Z,-27.42
2023-01-22T12:18:32.275Z,-27.35
2023-01-22T12:21:03.058Z,-27.36
2023-01-22T12:23:44.857Z,-27.36
2023-01-22T12:26:23.703Z,-27.35
2023-01-22T12:29:03.582Z,-27.33
2023-01-22T12:31:35.578Z,-27.36
2023-01-22T12:34:05.523Z,-27.33
2023-01-22T12:36:33.479Z,-27.32
2023-01-22T12:39:03.694Z,-27.31
2023-01-22T12:41:49.038Z,-27.30
2023-01-22T12:44:36.096Z,-27.32
2023-01-22T12:47:22.457Z,-27.37
2023-01-22T12:49:51.744Z,-27.39
2023-01-22T12:52:33.492Z,-27.40
2023-01-22T12:55:01.823Z,-27.42
2023-01-22T12:57:40.709Z,-27.40
2023-01-22T13:00:22.974Z,-27.39
2023-01-22T13:02:52.234Z,-27.37
2023-01-22T13:05:37.827Z,-27.38
2023-01-22T13:08:42.673Z,-27.31
2023-01-22T13:11:15.473Z,-27.32
2023-01-22T13:13:53.079Z,-27.30
2023-01-22T13:16:34.719Z,-27.32
2023-01-22T13:19:19.540Z,-27.38
2023-01-22T13:21:47.544Z,-27.41
2023-01-22T13:24:17.512Z,-27.54
2023-01-22T13:26:57.566Z,-27.45
2023-01-22T13:29:29.096Z,-27.47
2023-01-22T13:32:02.438Z,-27.51
2023-01-22T13:34:30.653Z,-27.56
2023-01-22T13:36:58.554Z,-27.46
2023-01-22T13:39:35.534Z,-27.46
2023-01-22T13:42:05.441Z,-27.47
2023-01-22T13:44:38.341Z,-27.49
2023-01-22T13:47:06.202Z,-27.47
2023-01-22T13:49:42.762Z,-27.47
2023-01-22T13:52:15.386Z,-27.44
2023-01-22T13:54:55.853Z,-27.44
2023-01-22T13:57:23.837Z,-27.45
2023-01-22T13:59:55.259Z,-27.47
2023-01-22T14:02:35.077Z,-27.49
2023-01-22T14:05:02.991Z,-27.50
2023-01-22T14:07:35.347Z,-27.52
2023-01-22T14:10:18.562Z,-27.53
2023-01-22T14:12:46.730Z,-27.58
2023-01-22T14:15:16.743Z,-27.56
2023-01-22T14:17:44.871Z,-27.55
2023-01-22T14:20:12.840Z,-27.56
2023-01-22T14:22:40.749Z,-27.53
2023-01-22T14:25:09.174Z,-27.52
2023-01-22T14:27:44.802Z,-27.56
2023-01-22T14:30:15.047Z,-27.57
2023-01-22T14:32:43.455Z,-27.64
2023-01-22T14:35:18.835Z,-27.72
2023-01-22T14:37:46.842Z,-27.83
2023-01-22T14:40:15.800Z,-27.91
2023-01-22T14:42:43.879Z,-27.95
2023-01-22T14:45:11.924Z,-27.99
2023-01-22T14:47:39.945Z,-28.03
2023-01-22T14:50:08.344Z,-28.07
2023-01-22T14:52:38.087Z,-28.11
2023-01-22T14:55:06.389Z,-28.21
2023-01-22T14:57:34.219Z,-28.29
2023-01-22T15:00:02.971Z,-28.36
2023-01-22T15:02:30.828Z,-28.38
2023-01-22T15:04:59.009Z,-28.47
2023-01-22T15:07:27.082Z,-28.49
2023-01-22T15:09:54.857Z,-28.57
2023-01-22T15:12:23.760Z,-28.57
2023-01-22T15:14:51.852Z,-28.59
2023-01-22T15:17:19.795Z,-28.59
2023-01-22T15:19:47.921Z,-28.59
2023-01-22T15:22:16.163Z,-28.54
2023-01-22T15:24:44.327Z,-28.57
2023-01-22T15:27:12.468Z,-28.54
2023-01-22T15:29:40.374Z,-28.56
2023-01-22T15:32:08.178Z,-28.58
2023-01-22T15:34:36.153Z,-28.53
2023-01-22T15:37:05.113Z,-28.44
2023-01-22T15:39:33.140Z,-28.47
2023-01-22T15:42:00.947Z,-28.38
2023-01-22T15:44:29.478Z,-28.33
2023-01-22T15:47:01.581Z,-28.31
2023-01-22T15:49:29.450Z,-28.30
2023-01-22T15:51:57.383Z,-28.25
2023-01-22T15:54:25.897Z,-28.17
2023-01-22T15:56:54.130Z,-28.06
2023-01-22T15:59:22.016Z,-27.89
2023-01-22T16:01:50.178Z,-27.72
2023-01-22T16:04:18.211Z,-27.60
2023-01-22T16:06:46.082Z,-27.52
2023-01-22T16:09:13.986Z,-27.42
2023-01-22T16:11:41.660Z,-27.33
2023-01-22T16:14:09.662Z,-27.29
2023-01-22T16:16:37.939Z,-27.23
2023-01-22T16:19:07.589Z,-27.18
2023-01-22T16:21:35.767Z,-27.10
2023-01-22T16:24:03.900Z,-27.09
2023-01-22T16:26:33.623Z,-27.07
2023-01-22T16:29:02.208Z,-27.02
2023-01-22T16:31:32.115Z,-26.97
2023-01-22T16:34:01.902Z,-26.94
2023-01-22T16:36:30.182Z,-26.94
2023-01-22T16:38:58.119Z,-26.91
2023-01-22T16:41:30.817Z,-26.87
2023-01-22T16:43:59.734Z,-26.82
2023-01-22T16:46:29.781Z,-26.83
2023-01-22T16:49:02.086Z,-26.81
2023-01-22T16:51:35.126Z,-26.83
2023-01-22T16:54:03.024Z,-26.84
2023-01-22T16:56:30.967Z,-26.84
2023-01-22T16:58:59.097Z,-26.79
2023-01-22T17:01:27.667Z,-26.75
2023-01-22T17:03:55.480Z,-26.73
2023-01-22T17:06:25.912Z,-26.75
2023-01-22T17:08:53.847Z,-26.69
2023-01-22T17:11:21.724Z,-26.70
2023-01-22T17:13:49.788Z,-26.75
2023-01-22T17:16:17.583Z,-26.76
2023-01-22T17:18:45.803Z,-26.85
2023-01-22T17:21:15.645Z,-26.87
2023-01-22T17:23:43.652Z,-26.92
2023-01-22T17:26:12.679Z,-26.94
2023-01-22T17:28:40.528Z,-26.91
2023-01-22T17:31:09.942Z,-26.84
2023-01-22T17:33:38.045Z,-26.83
2023-01-22T17:36:06.599Z,-26.83
2023-01-22T17:38:38.391Z,-26.74
2023-01-22T17:41:10.736Z,-26.73
2023-01-22T17:43:39.347Z,-26.77
2023-01-22T17:46:09.474Z,-26.64
2023-01-22T17:48:37.833Z,-26.64
2023-01-22T17:51:09.787Z,-26.63
2023-01-22T17:53:39.149Z,-26.58
2023-01-22T17:56:15.468Z,-26.57
2023-01-22T17:58:44.743Z,-26.55
2023-01-22T18:01:13.636Z,-26.51
2023-01-22T18:03:41.628Z,-26.47
2023-01-22T18:06:09.716Z,-26.43
2023-01-22T18:08:39.759Z,-26.49
2023-01-22T18:11:11.831Z,-26.55
2023-01-22T18:13:39.886Z,-26.57
2023-01-22T18:16:08.868Z,-26.59
2023-01-22T18:18:36.785Z,-26.61
2023-01-22T18:21:06.484Z,-26.65
2023-01-22T18:23:34.236Z,-26.65
2023-01-22T18:26:05.032Z,-26.67
2023-01-22T18:28:32.980Z,-26.64
2023-01-22T18:31:11.911Z,-26.61
2023-01-22T18:33:40.120Z,-26.53
2023-01-22T18:36:12.634Z,-26.46
2023-01-22T18:38:41.082Z,-26.40
2023-01-22T18:41:10.943Z,-26.35
2023-01-22T18:43:38.947Z,-26.37
2023-01-22T18:46:08.328Z,-26.28
2023-01-22T18:48:36.310Z,-26.26
2023-01-22T18:51:04.725Z,-26.22
2023-01-22T18:53:33.766Z,-26.24
2023-01-22T18:56:02.297Z,-26.30
2023-01-22T18:58:36.400Z,-26.33
2023-01-22T19:01:50.421Z,-26.34
2023-01-22T19:04:21.226Z,-26.34
2023-01-22T19:06:53.541Z,-26.30
2023-01-22T19:09:21.580Z,-26.29
2023-01-22T19:11:49.642Z,-26.20
2023-01-22T19:14:19.153Z,-26.09
2023-01-22T19:16:48.959Z,-26.10
2023-01-22T19:19:17.400Z,-25.93
2023-01-22T19:21:48.407Z,-25.92
2023-01-22T19:24:18.932Z,-25.87
2023-01-22T19:26:47.122Z,-25.95
2023-01-22T19:29:20.187Z,-25.99
2023-01-22T19:31:48.904Z,-26.06
2023-01-22T19:34:23.804Z,-26.08
2023-01-22T19:36:55.672Z,-26.13
2023-01-22T19:39:25.706Z,-26.11
2023-01-22T19:41:54.491Z,-26.11
2023-01-22T19:44:22.488Z,-26.12
2023-01-22T19:46:50.212Z,-26.12
2023-01-22T19:49:18.010Z,-26.11
2023-01-22T19:51:45.812Z,-26.03
2023-01-22T19:54:13.702Z,-26.03
2023-01-22T19:56:44.703Z,-25.94
2023-01-22T19:59:15.228Z,-25.85
2023-01-22T20:01:43.280Z,-25.72
2023-01-22T20:04:14.983Z,-25.60
2023-01-22T20:06:45.589Z,-25.61
2023-01-22T20:09:13.754Z,-25.48
2023-01-22T20:11:41.523Z,-25.41
2023-01-22T20:14:09.335Z,-25.36
2023-01-22T20:16:37.131Z,-25.29
2023-01-22T20:19:04.997Z,-25.26
2023-01-22T20:21:32.806Z,-25.25
2023-01-22T20:24:00.626Z,-25.22
2023-01-22T20:26:28.444Z,-25.26
2023-01-22T20:28:56.402Z,-25.20
2023-01-22T20:31:24.554Z,-25.24
2023-01-22T20:33:53.026Z,-25.19
2023-01-22T20:36:21.548Z,-25.15
2023-01-22T20:38:52.694Z,-25.10
2023-01-22T20:41:21.123Z,-25.00
2023-01-22T20:43:48.967Z,-24.88
2023-01-22T20:46:18.549Z,-24.76
2023-01-22T20:48:46.405Z,-24.74
2023-01-22T20:51:17.956Z,-24.77
2023-01-22T20:53:46.658Z,-24.77
2023-01-22T20:56:21.502Z,-24.82
2023-01-22T20:58:54.924Z,-24.90
2023-01-22T21:01:22.765Z,-25.01
2023-01-22T21:03:50.622Z,-25.15
2023-01-22T21:06:19.474Z,-25.34
2023-01-22T21:08:51.959Z,-25.49
2023-01-22T21:11:20.734Z,-25.55
2023-01-22T21:13:49.401Z,-25.56
2023-01-22T21:16:31.309Z,-25.62
2023-01-22T21:19:04.206Z,-25.73
2023-01-22T21:21:32.505Z,-25.82
2023-01-22T21:24:00.275Z,-25.88
2023-01-22T21:26:30.780Z,-25.99
2023-01-22T21:29:00.769Z,-26.04
2023-01-22T21:31:28.977Z,-26.04
2023-01-22T21:34:03.338Z,-25.95
2023-01-22T21:36:34.150Z,-25.92
2023-01-22T21:39:02.266Z,-25.93
2023-01-22T21:41:30.053Z,-25.92
2023-01-22T21:44:16.161Z,-25.91
2023-01-22T21:46:44.635Z,-25.82
2023-01-22T21:49:18.167Z,-25.75
2023-01-22T21:51:53.052Z,-25.63
2023-01-22T21:54:28.217Z,-25.52
2023-01-22T21:56:56.429Z,-25.37
2023-01-22T21:59:24.399Z,-25.25
2023-01-22T22:01:54.079Z,-25.13
2023-01-22T22:04:26.122Z,-25.05
2023-01-22T22:06:54.088Z,-25.07
2023-01-22T22:09:23.950Z,-25.04
2023-01-22T22:11:54.938Z,-25.08
2023-01-22T22:14:22.758Z,-25.13
2023-01-22T22:16:50.663Z,-25.06
2023-01-22T22:19:18.674Z,-24.94
2023-01-22T22:21:46.700Z,-24.84
2023-01-22T22:24:14.701Z,-24.75
2023-01-22T22:26:42.629Z,-24.57
2023-01-22T22:29:10.553Z,-24.46
2023-01-22T22:31:38.543Z,-24.34
2023-01-22T22:34:06.369Z,-24.26
2023-01-22T22:36:34.289Z,-24.22
2023-01-22T22:39:02.257Z,-24.09
2023-01-22T22:41:31.178Z,-23.98
2023-01-22T22:43:59.436Z,-23.98
2023-01-22T22:46:29.125Z,-23.92
2023-01-22T22:48:57.895Z,-23.88
2023-01-22T22:51:38.727Z,-23.78
2023-01-22T22:54:08.646Z,-23.75
2023-01-22T22:56:36.638Z,-23.83
2023-01-22T22:59:05.521Z,-23.85
2023-01-22T23:01:33.563Z,-23.77
2023-01-22T23:04:01.632Z,-23.77
2023-01-22T23:06:30.925Z,-23.73
2023-01-22T23:09:11.918Z,-23.62
2023-01-22T23:11:40.074Z,-23.54
2023-01-22T23:14:07.905Z,-23.49
2023-01-22T23:16:37.707Z,-23.42
2023-01-22T23:19:07.947Z,-23.37
2023-01-22T23:21:36.686Z,-23.46
2023-01-22T23:24:04.862Z,-23.49
2023-01-22T23:26:32.731Z,-23.45
2023-01-22T23:29:02.684Z,-23.41
2023-01-22T23:31:31.625Z,-23.44
2023-01-22T23:34:00.000Z,-23.46
2023-01-22T23:36:27.814Z,-23.53
2023-01-22T23:38:55.770Z,-23.50
2023-01-22T23:41:23.633Z,-23.49
2023-01-22T23:43:51.717Z,-23.47
2023-01-22T23:46:24.663Z,-23.43
2023-01-22T23:48:52.836Z,-23.42
2023-01-22T23:51:20.600Z,-23.41
2023-01-22T23:53:52.198Z,-23.44
2023-01-22T23:56:23.678Z,-23.41
2023-01-22T23:58:53.332Z,-23.45
